Observations for FIRENZE PERETOLA, Italy (LIRQ)

LIRQ 230550Z VRB01KT 8000 SCT015 BKN030 14/14 Q1017 
LIRQ 230520Z 26001KT 8000 SCT016 BKN030 14/13 Q1017 
LIRQ 230450Z VRB02KT 9999 SCT025 13/13 Q1017
LIRQ 230420Z VRB02KT 9999 FEW015 SCT040 13/12 Q1017 
LIRQ 230350Z 16003KT 9999 SCT040 13/13 Q1016
LIRQ 230320Z 17003KT 9999 BKN040 14/13 Q1017
LIRQ 230250Z VRB02KT 9999 SCT045 14/13 Q1017
LIRQ 230220Z 06001KT 9999 SCT045 14/13 Q1017
LIRQ 230150Z VRB01KT 9999 SCT045 14/13 Q1016
LIRQ 230120Z 01001KT 9999 SCT050 14/13 Q1017
LIRQ 230050Z VRB02KT 9999 FEW070 14/13 Q1016
LIRQ 230020Z 13003KT 9999 FEW070 14/13 Q1017
LIRQ 222350Z VRB01KT CAVOK 13/13 Q1017  
LIRQ 222320Z 10003KT CAVOK 13/12 Q1016  
LIRQ 222250Z 08004KT CAVOK 13/12 Q1016  
LIRQ 222220Z 09003KT CAVOK 13/13 Q1016  
LIRQ 222150Z VRB02KT CAVOK 13/12 Q1016  
LIRQ 222120Z 09003KT CAVOK 14/13 Q1016  
LIRQ 222050Z VRB02KT CAVOK 14/13 Q1016  
LIRQ 222020Z 10005KT CAVOK 15/14 Q1016  
LIRQ 221950Z 12003KT CAVOK 15/14 Q1016  
LIRQ 221920Z 08004KT CAVOK 16/14 Q1015  
LIRQ 221850Z 09004KT 9999 FEW080 17/15 Q1015
LIRQ 221820Z 08004KT 9999 FEW060 SCT080 17/15 Q1015 
LIRQ 221750Z 10004KT 9999 SCT060 BKN080 17/15 Q1015 
LIRQ 221720Z 08007KT 9999 -RA SCT060 BKN080 17/15 Q1015 
LIRQ 221650Z 11007KT 9999 -RA BKN060 18/15 Q1015
LIRQ 221620Z 08007KT 060V120 9999 FEW040 BKN080 18/15 Q1015 
LIRQ 221550Z 18009KT 9999 SCT040 19/14 Q1015
LIRQ 221520Z 20013KT 9999 SCT035CB BKN080 20/14 Q1015   
LIRQ 221450Z 23010KT 200V260 9999 VCSH SCT035CB SCT080 22/14 Q1015  
LIRQ 221420Z 33004KT 300V010 9999 SCT035TCU BKN080 21/14 Q1014  
LIRQ 221350Z 32004KT 280V020 9999 FEW035TCU SCT040 21/13 Q1014  
LIRQ 221320Z 29007KT 270V330 9999 FEW035TCU SCT040 22/15 Q1015  
LIRQ 221250Z 28005KT 180V340 9999 SCT040 22/13 Q1015
LIRQ 221220Z 25006KT 200V350 9999 SCT045 SCT060 22/12 Q1015 
LIRQ 221150Z VRB02KT 9999 SCT045 SCT060 21/14 Q1015 
LIRQ 221120Z 36003KT 260V040 9999 SCT035 SCT060 21/13 Q1016 
LIRQ 221050Z VRB03KT 9999 SCT040 BKN060 20/13 Q1016 
LIRQ 221020Z VRB02KT 9999 SCT040 BKN060 19/14 Q1016 
LIRQ 220950Z VRB02KT 9999 SCT040 BKN060 19/13 Q1016 
LIRQ 220920Z VRB01KT 9999 BKN050 18/13 Q1016
LIRQ 220850Z VRB02KT 9999 BKN050 18/13 Q1016
LIRQ 220820Z VRB01KT 9999 BKN050 17/13 Q1016
LIRQ 220750Z VRB01KT 9999 BKN045 16/13 Q1016
LIRQ 220720Z VRB02KT 9999 BKN040 16/12 Q1016
LIRQ 220650Z VRB01KT 9999 BKN045 15/12 Q1016
LIRQ 220620Z VRB01KT 9999 BKN045 15/12 Q1016
LIRQ 220550Z VRB02KT 9999 BKN045 14/13 Q1015
LIRQ 220520Z 33002KT 9999 SCT035 BKN050 14/12 Q1015